Don Carlton — WDE8670 — position and weather

sailwx.info

Track history (hours):
 
Tides and Currents Weather Stations Pressure Air Temp Water Temp Dewpoint Dewpoint Depression Visibility Wind Speed Wind Dir Waves Ship Positions

Don Carlton

Owner: Florida Marine Transporters, Inc., Mandeville, LA. More information available from US FCC via Universal Licensing System and Coast Guard Vessel Documentation Center.

Last reported at 2017-Sep-19 14:17 UTC. Time now 2017-Sep-20 18:18 UTC.
Position N 30°29' W 086°29'.

Length 28 m; draft 2.7 m.

Type: Towing. MMSI: 367408160.

Date/timePositionNaut miles runAvg speedWind from/ knotsBaromVisibWave heightAir tempDewpointWater temp
2017-Sep-19 14:17N 30°29' W 086°29'1 2.7
2017-Sep-19 14:00N 30°29' W 086°28'3 5.7
2017-Sep-19 13:30N 30°26' W 086°26'3 5.5
2017-Sep-19 13:00N 30°26' W 086°23'1 0.0
2017-Sep-17 10:43N 30°26' W 086°22'1 5.2
2017-Sep-17 10:30N 30°26' W 086°23'2 5.0
2017-Sep-17 10:00N 30°26' W 086°26'18 4.5
2017-Sep-17 05:57N 30°24' W 086°47'2 4.8
2017-Sep-17 05:30N 30°24' W 086°50'  
Track history (hours):
 
Tides and Currents Weather Stations Pressure Air Temp Water Temp Dewpoint Dewpoint Depression Visibility Wind Speed Wind Dir Waves Ship Positions

Don Carlton

Owner: Florida Marine Transporters, Inc., Mandeville, LA. More information available from US FCC via Universal Licensing System and Coast Guard Vessel Documentation Center.

Last reported at 2017-Sep-19 14:17 UTC. Time now 2017-Sep-20 18:18 UTC.
Position N 30°29' W 086°29'.

Length 28 m; draft 2.7 m.

Type: Towing. MMSI: 367408160.

Date/timePositionNaut miles runAvg speedWind from/ knotsBaromVisibWave heightAir tempDewpointWater temp
2017-Sep-19 14:17N 30°29' W 086°29'1 2.7
2017-Sep-19 14:00N 30°29' W 086°28'3 5.7
2017-Sep-19 13:30N 30°26' W 086°26'3 5.5
2017-Sep-19 13:00N 30°26' W 086°23'1 0.0
2017-Sep-17 10:43N 30°26' W 086°22'1 5.2
2017-Sep-17 10:30N 30°26' W 086°23'2 5.0
2017-Sep-17 10:00N 30°26' W 086°26'18 4.5
2017-Sep-17 05:57N 30°24' W 086°47'2 4.8
2017-Sep-17 05:30N 30°24' W 086°50'  

Dump ship's entire track history